sensor_id;sensor_type;location;lat;lon;timestamp;P1;durP1;ratioP1;P2;durP2;ratioP2
37288;SDS011;23174;49.462;11.000;2022-12-24T00:00:40;2.15;;;0.95;;
37288;SDS011;23174;49.462;11.000;2022-12-24T00:02:41;1.65;;;0.93;;
37288;SDS011;23174;49.462;11.000;2022-12-24T00:04:41;0.80;;;0.38;;
37288;SDS011;23174;49.462;11.000;2022-12-24T00:06:42;0.77;;;0.30;;
37288;SDS011;23174;49.462;11.000;2022-12-24T00:08:43;3.63;;;0.40;;
37288;SDS011;23174;49.462;11.000;2022-12-24T00:10:44;2.00;;;0.88;;
37288;SDS011;23174;49.462;11.000;2022-12-24T00:12:49;1.33;;;0.80;;
37288;SDS011;23174;49.462;11.000;2022-12-24T00:14:49;0.20;;;0.20;;
37288;SDS011;23174;49.462;11.000;2022-12-24T00:16:50;1.08;;;0.65;;
37288;SDS011;23174;49.462;11.000;2022-12-24T00:18:50;1.15;;;0.55;;
37288;SDS011;23174;49.462;11.000;2022-12-24T00:20:51;3.08;;;1.10;;
37288;SDS011;23174;49.462;11.000;2022-12-24T00:22:52;0.50;;;0.40;;
37288;SDS011;23174;49.462;11.000;2022-12-24T00:24:52;1.35;;;0.40;;
37288;SDS011;23174;49.462;11.000;2022-12-24T00:26:53;1.30;;;1.17;;
37288;SDS011;23174;49.462;11.000;2022-12-24T00:28:53;1.60;;;0.60;;
37288;SDS011;23174;49.462;11.000;2022-12-24T00:30:54;1.23;;;0.35;;
37288;SDS011;23174;49.462;11.000;2022-12-24T00:32:54;1.63;;;1.00;;
37288;SDS011;23174;49.462;11.000;2022-12-24T00:34:55;0.63;;;0.57;;
37288;SDS011;23174;49.462;11.000;2022-12-24T00:36:56;0.13;;;0.13;;
37288;SDS011;23174;49.462;11.000;2022-12-24T00:38:56;3.13;;;0.73;;
37288;SDS011;23174;49.462;11.000;2022-12-24T00:41:00;3.38;;;0.70;;
37288;SDS011;23174;49.462;11.000;2022-12-24T00:43:02;3.38;;;1.10;;
37288;SDS011;23174;49.462;11.000;2022-12-24T00:45:03;2.17;;;0.80;;
37288;SDS011;23174;49.462;11.000;2022-12-24T00:47:03;2.53;;;1.35;;
37288;SDS011;23174;49.462;11.000;2022-12-24T00:49:05;4.18;;;2.03;;
37288;SDS011;23174;49.462;11.000;2022-12-24T00:51:07;3.65;;;1.27;;
37288;SDS011;23174;49.462;11.000;2022-12-24T00:53:07;3.42;;;1.23;;
37288;SDS011;23174;49.462;11.000;2022-12-24T00:55:08;4.85;;;1.60;;
37288;SDS011;23174;49.462;11.000;2022-12-24T00:57:08;3.35;;;1.55;;
37288;SDS011;23174;49.462;11.000;2022-12-24T00:59:09;2.70;;;1.42;;
37288;SDS011;23174;49.462;11.000;2022-12-24T01:01:10;4.47;;;1.73;;
37288;SDS011;23174;49.462;11.000;2022-12-24T01:03:10;4.15;;;1.50;;
37288;SDS011;23174;49.462;11.000;2022-12-24T01:05:11;3.53;;;1.73;;
37288;SDS011;23174;49.462;11.000;2022-12-24T01:07:12;6.85;;;2.00;;
37288;SDS011;23174;49.462;11.000;2022-12-24T01:09:12;5.20;;;1.75;;
37288;SDS011;23174;49.462;11.000;2022-12-24T01:11:13;5.95;;;1.42;;
37288;SDS011;23174;49.462;11.000;2022-12-24T01:13:14;4.38;;;1.60;;
37288;SDS011;23174;49.462;11.000;2022-12-24T01:15:14;6.20;;;1.48;;
37288;SDS011;23174;49.462;11.000;2022-12-24T01:17:15;6.65;;;1.80;;
37288;SDS011;23174;49.462;11.000;2022-12-24T01:19:16;5.10;;;1.48;;
37288;SDS011;23174;49.462;11.000;2022-12-24T01:21:16;4.95;;;1.65;;
37288;SDS011;23174;49.462;11.000;2022-12-24T01:23:17;4.18;;;1.80;;
37288;SDS011;23174;49.462;11.000;2022-12-24T01:25:17;3.47;;;1.58;;
37288;SDS011;23174;49.462;11.000;2022-12-24T01:27:18;4.32;;;1.48;;
37288;SDS011;23174;49.462;11.000;2022-12-24T01:29:19;4.15;;;1.48;;
37288;SDS011;23174;49.462;11.000;2022-12-24T01:31:20;5.22;;;1.60;;
37288;SDS011;23174;49.462;11.000;2022-12-24T01:33:20;2.78;;;1.42;;
37288;SDS011;23174;49.462;11.000;2022-12-24T01:35:21;4.00;;;1.58;;
37288;SDS011;23174;49.462;11.000;2022-12-24T01:37:22;3.65;;;1.52;;
37288;SDS011;23174;49.462;11.000;2022-12-24T01:39:22;5.13;;;1.90;;
37288;SDS011;23174;49.462;11.000;2022-12-24T01:41:24;3.13;;;1.52;;
37288;SDS011;23174;49.462;11.000;2022-12-24T01:47:47;8.50;;;1.77;;
37288;SDS011;23174;49.462;11.000;2022-12-24T01:49:58;2.72;;;1.30;;
37288;SDS011;23174;49.462;11.000;2022-12-24T01:52:06;3.72;;;1.98;;
37288;SDS011;23174;49.462;11.000;2022-12-24T01:54:23;5.57;;;1.50;;
37288;SDS011;23174;49.462;11.000;2022-12-24T01:56:30;4.28;;;1.60;;
37288;SDS011;23174;49.462;11.000;2022-12-24T01:58:33;2.20;;;1.38;;
37288;SDS011;23174;49.462;11.000;2022-12-24T02:00:35;4.63;;;1.60;;
37288;SDS011;23174;49.462;11.000;2022-12-24T02:02:37;3.55;;;2.10;;
37288;SDS011;23174;49.462;11.000;2022-12-24T02:06:49;4.80;;;1.65;;
37288;SDS011;23174;49.462;11.000;2022-12-24T02:08:50;4.68;;;1.90;;
37288;SDS011;23174;49.462;11.000;2022-12-24T02:10:51;4.45;;;2.22;;
37288;SDS011;23174;49.462;11.000;2022-12-24T02:12:51;3.47;;;1.10;;
37288;SDS011;23174;49.462;11.000;2022-12-24T02:14:52;3.35;;;1.60;;
37288;SDS011;23174;49.462;11.000;2022-12-24T02:17:06;5.35;;;1.65;;
37288;SDS011;23174;49.462;11.000;2022-12-24T02:31:11;3.13;;;1.20;;
37288;SDS011;23174;49.462;11.000;2022-12-24T02:35:18;3.83;;;1.60;;
37288;SDS011;23174;49.462;11.000;2022-12-24T02:37:45;5.50;;;1.45;;
37288;SDS011;23174;49.462;11.000;2022-12-24T02:41:57;5.32;;;1.83;;
37288;SDS011;23174;49.462;11.000;2022-12-24T02:44:07;4.47;;;1.33;;
37288;SDS011;23174;49.462;11.000;2022-12-24T02:46:21;8.05;;;2.00;;
37288;SDS011;23174;49.462;11.000;2022-12-24T02:48:27;4.10;;;1.65;;
37288;SDS011;23174;49.462;11.000;2022-12-24T02:50:29;5.43;;;1.67;;
37288;SDS011;23174;49.462;11.000;2022-12-24T02:52:34;6.20;;;1.80;;
37288;SDS011;23174;49.462;11.000;2022-12-24T02:54:36;3.47;;;1.60;;
37288;SDS011;23174;49.462;11.000;2022-12-24T02:59:10;3.42;;;1.42;;
37288;SDS011;23174;49.462;11.000;2022-12-24T03:06:18;3.45;;;1.33;;
37288;SDS011;23174;49.462;11.000;2022-12-24T03:10:56;4.78;;;1.30;;
37288;SDS011;23174;49.462;11.000;2022-12-24T03:13:06;4.47;;;1.52;;
37288;SDS011;23174;49.462;11.000;2022-12-24T03:15:15;3.67;;;1.67;;
37288;SDS011;23174;49.462;11.000;2022-12-24T03:17:18;5.18;;;1.70;;
37288;SDS011;23174;49.462;11.000;2022-12-24T03:19:20;9.20;;;2.63;;
37288;SDS011;23174;49.462;11.000;2022-12-24T03:21:26;2.92;;;1.30;;
37288;SDS011;23174;49.462;11.000;2022-12-24T03:23:30;5.20;;;1.80;;
37288;SDS011;23174;49.462;11.000;2022-12-24T03:25:31;5.88;;;1.52;;
37288;SDS011;23174;49.462;11.000;2022-12-24T03:27:33;6.82;;;1.90;;
37288;SDS011;23174;49.462;11.000;2022-12-24T03:29:35;3.80;;;1.38;;
37288;SDS011;23174;49.462;11.000;2022-12-24T03:31:43;2.60;;;1.27;;
37288;SDS011;23174;49.462;11.000;2022-12-24T03:33:58;3.38;;;1.40;;
37288;SDS011;23174;49.462;11.000;2022-12-24T03:35:59;3.35;;;1.48;;
37288;SDS011;23174;49.462;11.000;2022-12-24T03:38:00;3.67;;;1.38;;
37288;SDS011;23174;49.462;11.000;2022-12-24T03:40:00;3.63;;;1.60;;
37288;SDS011;23174;49.462;11.000;2022-12-24T03:42:01;4.80;;;2.10;;
37288;SDS011;23174;49.462;11.000;2022-12-24T03:44:02;3.72;;;1.60;;
37288;SDS011;23174;49.462;11.000;2022-12-24T03:46:04;2.63;;;1.25;;
37288;SDS011;23174;49.462;11.000;2022-12-24T03:48:05;2.83;;;1.70;;
37288;SDS011;23174;49.462;11.000;2022-12-24T03:50:06;3.78;;;1.02;;
37288;SDS011;23174;49.462;11.000;2022-12-24T03:52:07;6.05;;;1.52;;
37288;SDS011;23174;49.462;11.000;2022-12-24T03:54:07;4.88;;;2.00;;
37288;SDS011;23174;49.462;11.000;2022-12-24T03:56:08;3.78;;;2.08;;
37288;SDS011;23174;49.462;11.000;2022-12-24T03:58:09;2.92;;;1.58;;
37288;SDS011;23174;49.462;11.000;2022-12-24T04:00:09;5.88;;;2.47;;
37288;SDS011;23174;49.462;11.000;2022-12-24T04:02:10;2.65;;;1.58;;
37288;SDS011;23174;49.462;11.000;2022-12-24T04:04:11;3.60;;;1.10;;
37288;SDS011;23174;49.462;11.000;2022-12-24T04:06:13;4.50;;;1.67;;
37288;SDS011;23174;49.462;11.000;2022-12-24T04:08:16;3.15;;;1.52;;
37288;SDS011;23174;49.462;11.000;2022-12-24T04:10:17;3.70;;;1.70;;
37288;SDS011;23174;49.462;11.000;2022-12-24T04:12:17;4.20;;;1.88;;
37288;SDS011;23174;49.462;11.000;2022-12-24T04:14:18;3.00;;;1.20;;
37288;SDS011;23174;49.462;11.000;2022-12-24T04:16:18;3.40;;;1.45;;
37288;SDS011;23174;49.462;11.000;2022-12-24T04:18:20;3.65;;;1.50;;
37288;SDS011;23174;49.462;11.000;2022-12-24T04:20:21;4.40;;;1.65;;
37288;SDS011;23174;49.462;11.000;2022-12-24T04:22:21;4.00;;;1.58;;
37288;SDS011;23174;49.462;11.000;2022-12-24T04:24:22;6.10;;;1.80;;
37288;SDS011;23174;49.462;11.000;2022-12-24T04:26:22;4.80;;;1.35;;
37288;SDS011;23174;49.462;11.000;2022-12-24T04:28:23;2.63;;;1.58;;
37288;SDS011;23174;49.462;11.000;2022-12-24T04:30:24;3.03;;;1.48;;
37288;SDS011;23174;49.462;11.000;2022-12-24T04:32:25;6.70;;;1.65;;
37288;SDS011;23174;49.462;11.000;2022-12-24T04:34:26;5.07;;;1.33;;
37288;SDS011;23174;49.462;11.000;2022-12-24T04:36:26;9.45;;;1.95;;
37288;SDS011;23174;49.462;11.000;2022-12-24T04:38:27;5.38;;;1.88;;
37288;SDS011;23174;49.462;11.000;2022-12-24T04:40:28;6.72;;;1.80;;
37288;SDS011;23174;49.462;11.000;2022-12-24T04:42:28;3.80;;;1.70;;
37288;SDS011;23174;49.462;11.000;2022-12-24T04:44:29;3.15;;;1.35;;
37288;SDS011;23174;49.462;11.000;2022-12-24T04:46:29;3.10;;;1.70;;
37288;SDS011;23174;49.462;11.000;2022-12-24T04:48:30;4.43;;;1.55;;
37288;SDS011;23174;49.462;11.000;2022-12-24T04:50:30;3.78;;;1.65;;
37288;SDS011;23174;49.462;11.000;2022-12-24T04:52:32;3.97;;;1.50;;
37288;SDS011;23174;49.462;11.000;2022-12-24T04:54:33;4.35;;;1.73;;
37288;SDS011;23174;49.462;11.000;2022-12-24T04:56:33;2.90;;;1.60;;
37288;SDS011;23174;49.462;11.000;2022-12-24T04:58:34;4.75;;;2.03;;
37288;SDS011;23174;49.462;11.000;2022-12-24T05:00:35;2.55;;;1.58;;
37288;SDS011;23174;49.462;11.000;2022-12-24T05:02:36;4.50;;;1.30;;
37288;SDS011;23174;49.462;11.000;2022-12-24T05:04:36;3.55;;;1.65;;
37288;SDS011;23174;49.462;11.000;2022-12-24T05:06:37;4.93;;;1.88;;
37288;SDS011;23174;49.462;11.000;2022-12-24T05:08:38;3.97;;;1.52;;
37288;SDS011;23174;49.462;11.000;2022-12-24T05:10:39;4.47;;;1.60;;
37288;SDS011;23174;49.462;11.000;2022-12-24T05:12:39;6.93;;;1.38;;
37288;SDS011;23174;49.462;11.000;2022-12-24T05:14:40;3.90;;;1.30;;
37288;SDS011;23174;49.462;11.000;2022-12-24T05:16:40;3.03;;;1.40;;
37288;SDS011;23174;49.462;11.000;2022-12-24T05:18:42;4.28;;;1.58;;
37288;SDS011;23174;49.462;11.000;2022-12-24T05:20:43;4.00;;;1.50;;
37288;SDS011;23174;49.462;11.000;2022-12-24T05:22:44;6.10;;;1.58;;
37288;SDS011;23174;49.462;11.000;2022-12-24T05:25:03;3.25;;;1.40;;
37288;SDS011;23174;49.462;11.000;2022-12-24T05:27:22;5.82;;;1.95;;
37288;SDS011;23174;49.462;11.000;2022-12-24T05:29:23;4.63;;;1.42;;
37288;SDS011;23174;49.462;11.000;2022-12-24T05:31:24;3.85;;;1.40;;
37288;SDS011;23174;49.462;11.000;2022-12-24T05:33:26;4.88;;;1.83;;
37288;SDS011;23174;49.462;11.000;2022-12-24T05:35:27;5.18;;;1.60;;
37288;SDS011;23174;49.462;11.000;2022-12-24T05:37:28;4.53;;;1.42;;
37288;SDS011;23174;49.462;11.000;2022-12-24T05:39:28;4.53;;;1.58;;
37288;SDS011;23174;49.462;11.000;2022-12-24T05:41:29;7.10;;;2.15;;
37288;SDS011;23174;49.462;11.000;2022-12-24T05:43:30;4.43;;;1.70;;
37288;SDS011;23174;49.462;11.000;2022-12-24T05:45:30;4.90;;;1.80;;
37288;SDS011;23174;49.462;11.000;2022-12-24T05:47:31;4.03;;;1.67;;
37288;SDS011;23174;49.462;11.000;2022-12-24T05:49:32;6.82;;;2.35;;
37288;SDS011;23174;49.462;11.000;2022-12-24T05:51:33;4.78;;;1.45;;
37288;SDS011;23174;49.462;11.000;2022-12-24T05:53:34;5.30;;;2.20;;
37288;SDS011;23174;49.462;11.000;2022-12-24T05:55:35;5.82;;;2.33;;
37288;SDS011;23174;49.462;11.000;2022-12-24T05:57:35;6.38;;;2.40;;
37288;SDS011;23174;49.462;11.000;2022-12-24T05:59:38;4.55;;;1.85;;
37288;SDS011;23174;49.462;11.000;2022-12-24T06:01:38;4.18;;;1.95;;
37288;SDS011;23174;49.462;11.000;2022-12-24T06:03:39;7.75;;;1.95;;
37288;SDS011;23174;49.462;11.000;2022-12-24T06:05:40;3.08;;;1.50;;
37288;SDS011;23174;49.462;11.000;2022-12-24T06:07:40;5.93;;;1.80;;
37288;SDS011;23174;49.462;11.000;2022-12-24T06:09:41;4.07;;;1.88;;
37288;SDS011;23174;49.462;11.000;2022-12-24T06:11:41;4.80;;;1.50;;
37288;SDS011;23174;49.462;11.000;2022-12-24T06:13:42;6.63;;;2.40;;
37288;SDS011;23174;49.462;11.000;2022-12-24T06:15:43;6.82;;;1.77;;
37288;SDS011;23174;49.462;11.000;2022-12-24T06:17:43;4.47;;;1.85;;
37288;SDS011;23174;49.462;11.000;2022-12-24T06:19:44;3.78;;;1.85;;
37288;SDS011;23174;49.462;11.000;2022-12-24T06:21:44;5.28;;;1.60;;
37288;SDS011;23174;49.462;11.000;2022-12-24T06:23:45;5.80;;;1.80;;
37288;SDS011;23174;49.462;11.000;2022-12-24T06:25:46;5.70;;;2.10;;
37288;SDS011;23174;49.462;11.000;2022-12-24T06:27:47;3.80;;;1.45;;
37288;SDS011;23174;49.462;11.000;2022-12-24T06:29:48;5.43;;;2.30;;
37288;SDS011;23174;49.462;11.000;2022-12-24T06:31:48;6.53;;;2.13;;
37288;SDS011;23174;49.462;11.000;2022-12-24T06:33:49;4.15;;;1.65;;
37288;SDS011;23174;49.462;11.000;2022-12-24T06:35:50;4.40;;;2.08;;
37288;SDS011;23174;49.462;11.000;2022-12-24T06:37:51;8.48;;;1.80;;
37288;SDS011;23174;49.462;11.000;2022-12-24T06:39:52;5.32;;;1.98;;
37288;SDS011;23174;49.462;11.000;2022-12-24T06:41:52;8.57;;;4.53;;
37288;SDS011;23174;49.462;11.000;2022-12-24T06:43:53;4.75;;;3.13;;
37288;SDS011;23174;49.462;11.000;2022-12-24T06:45:53;8.52;;;4.15;;
37288;SDS011;23174;49.462;11.000;2022-12-24T06:47:54;4.75;;;1.90;;
37288;SDS011;23174;49.462;11.000;2022-12-24T06:49:54;6.97;;;2.13;;
37288;SDS011;23174;49.462;11.000;2022-12-24T06:51:55;6.55;;;2.58;;
37288;SDS011;23174;49.462;11.000;2022-12-24T06:53:56;4.85;;;1.95;;
37288;SDS011;23174;49.462;11.000;2022-12-24T06:56:00;6.82;;;2.05;;
37288;SDS011;23174;49.462;11.000;2022-12-24T06:58:04;7.65;;;2.35;;
37288;SDS011;23174;49.462;11.000;2022-12-24T07:00:06;6.60;;;2.05;;
37288;SDS011;23174;49.462;11.000;2022-12-24T07:02:10;1.52;;;1.00;;
37288;SDS011;23174;49.462;11.000;2022-12-24T07:04:11;2.47;;;0.82;;
37288;SDS011;23174;49.462;11.000;2022-12-24T07:06:17;4.72;;;1.98;;
37288;SDS011;23174;49.462;11.000;2022-12-24T07:08:19;5.03;;;1.67;;
37288;SDS011;23174;49.462;11.000;2022-12-24T07:10:20;1.10;;;0.52;;
37288;SDS011;23174;49.462;11.000;2022-12-24T07:12:21;2.25;;;0.77;;
37288;SDS011;23174;49.462;11.000;2022-12-24T07:14:21;0.55;;;0.45;;
37288;SDS011;23174;49.462;11.000;2022-12-24T07:16:22;1.02;;;0.60;;
37288;SDS011;23174;49.462;11.000;2022-12-24T07:18:22;0.17;;;0.13;;
37288;SDS011;23174;49.462;11.000;2022-12-24T07:20:23;0.22;;;0.22;;
37288;SDS011;23174;49.462;11.000;2022-12-24T07:22:24;0.30;;;0.30;;
37288;SDS011;23174;49.462;11.000;2022-12-24T07:24:24;0.10;;;0.10;;
37288;SDS011;23174;49.462;11.000;2022-12-24T07:26:25;0.73;;;0.17;;
37288;SDS011;23174;49.462;11.000;2022-12-24T07:28:25;5.55;;;0.45;;
37288;SDS011;23174;49.462;11.000;2022-12-24T07:30:26;1.30;;;0.52;;
37288;SDS011;23174;49.462;11.000;2022-12-24T07:32:27;0.17;;;0.17;;
37288;SDS011;23174;49.462;11.000;2022-12-24T07:34:27;1.77;;;0.90;;
37288;SDS011;23174;49.462;11.000;2022-12-24T07:36:28;0.15;;;0.15;;
37288;SDS011;23174;49.462;11.000;2022-12-24T07:38:29;3.55;;;0.47;;
37288;SDS011;23174;49.462;11.000;2022-12-24T07:40:32;0.47;;;0.45;;
37288;SDS011;23174;49.462;11.000;2022-12-24T07:42:34;1.00;;;0.55;;
37288;SDS011;23174;49.462;11.000;2022-12-24T07:44:34;0.47;;;0.38;;
37288;SDS011;23174;49.462;11.000;2022-12-24T07:46:35;0.43;;;0.43;;
37288;SDS011;23174;49.462;11.000;2022-12-24T07:48:35;0.65;;;0.65;;
37288;SDS011;23174;49.462;11.000;2022-12-24T07:50:36;2.05;;;1.00;;
37288;SDS011;23174;49.462;11.000;2022-12-24T07:52:36;6.95;;;0.75;;
37288;SDS011;23174;49.462;11.000;2022-12-24T07:54:38;3.35;;;1.00;;
37288;SDS011;23174;49.462;11.000;2022-12-24T07:56:38;2.03;;;1.30;;
37288;SDS011;23174;49.462;11.000;2022-12-24T07:58:39;2.55;;;0.73;;
37288;SDS011;23174;49.462;11.000;2022-12-24T08:00:40;3.05;;;1.60;;
37288;SDS011;23174;49.462;11.000;2022-12-24T08:02:40;1.52;;;1.00;;
37288;SDS011;23174;49.462;11.000;2022-12-24T08:04:41;1.42;;;0.52;;
37288;SDS011;23174;49.462;11.000;2022-12-24T08:06:41;5.10;;;1.58;;
37288;SDS011;23174;49.462;11.000;2022-12-24T08:08:42;1.20;;;0.43;;
37288;SDS011;23174;49.462;11.000;2022-12-24T08:10:43;3.95;;;1.63;;
37288;SDS011;23174;49.462;11.000;2022-12-24T08:12:45;4.97;;;1.50;;
37288;SDS011;23174;49.462;11.000;2022-12-24T08:14:47;3.20;;;0.77;;
37288;SDS011;23174;49.462;11.000;2022-12-24T08:16:47;1.27;;;0.60;;
37288;SDS011;23174;49.462;11.000;2022-12-24T08:18:48;2.70;;;1.33;;
37288;SDS011;23174;49.462;11.000;2022-12-24T08:20:49;2.13;;;1.10;;
37288;SDS011;23174;49.462;11.000;2022-12-24T08:22:51;1.20;;;0.57;;
37288;SDS011;23174;49.462;11.000;2022-12-24T08:24:52;1.83;;;0.90;;
37288;SDS011;23174;49.462;11.000;2022-12-24T08:26:52;6.85;;;0.85;;
37288;SDS011;23174;49.462;11.000;2022-12-24T08:28:53;8.18;;;2.67;;
37288;SDS011;23174;49.462;11.000;2022-12-24T08:30:53;1.80;;;0.45;;
37288;SDS011;23174;49.462;11.000;2022-12-24T08:32:54;0.22;;;0.22;;
37288;SDS011;23174;49.462;11.000;2022-12-24T08:34:54;3.92;;;1.23;;
37288;SDS011;23174;49.462;11.000;2022-12-24T08:36:55;0.88;;;0.75;;
37288;SDS011;23174;49.462;11.000;2022-12-24T08:38:56;6.47;;;1.77;;
37288;SDS011;23174;49.462;11.000;2022-12-24T08:40:56;2.40;;;1.30;;
37288;SDS011;23174;49.462;11.000;2022-12-24T08:42:57;6.97;;;3.00;;
37288;SDS011;23174;49.462;11.000;2022-12-24T08:44:58;8.20;;;3.03;;
37288;SDS011;23174;49.462;11.000;2022-12-24T08:46:59;7.00;;;2.28;;
37288;SDS011;23174;49.462;11.000;2022-12-24T08:48:59;7.78;;;2.67;;
37288;SDS011;23174;49.462;11.000;2022-12-24T08:51:00;8.90;;;2.90;;
37288;SDS011;23174;49.462;11.000;2022-12-24T08:53:09;9.93;;;3.00;;
37288;SDS011;23174;49.462;11.000;2022-12-24T08:55:10;10.50;;;2.95;;
37288;SDS011;23174;49.462;11.000;2022-12-24T08:57:10;8.70;;;2.75;;
37288;SDS011;23174;49.462;11.000;2022-12-24T08:59:11;5.15;;;2.30;;
37288;SDS011;23174;49.462;11.000;2022-12-24T09:01:12;7.50;;;2.45;;
37288;SDS011;23174;49.462;11.000;2022-12-24T09:03:15;7.22;;;2.53;;
37288;SDS011;23174;49.462;11.000;2022-12-24T09:05:16;6.57;;;2.75;;
37288;SDS011;23174;49.462;11.000;2022-12-24T09:07:17;10.63;;;3.17;;
37288;SDS011;23174;49.462;11.000;2022-12-24T09:09:17;9.90;;;2.92;;
37288;SDS011;23174;49.462;11.000;2022-12-24T09:11:20;10.82;;;3.65;;
37288;SDS011;23174;49.462;11.000;2022-12-24T09:13:21;6.40;;;2.63;;
37288;SDS011;23174;49.462;11.000;2022-12-24T09:15:22;9.50;;;3.35;;
37288;SDS011;23174;49.462;11.000;2022-12-24T09:17:22;7.40;;;2.80;;
37288;SDS011;23174;49.462;11.000;2022-12-24T09:19:23;5.43;;;2.42;;
37288;SDS011;23174;49.462;11.000;2022-12-24T09:21:23;8.73;;;2.83;;
37288;SDS011;23174;49.462;11.000;2022-12-24T09:23:24;7.85;;;2.78;;
